createdAt,value
2022-08-30T00:02:54.954Z,25.99
2022-08-30T00:07:59.599Z,25.92
2022-08-30T00:13:03.220Z,25.90
2022-08-30T00:18:06.854Z,25.87
2022-08-30T00:23:10.927Z,25.85
2022-08-30T00:28:14.386Z,25.85
2022-08-30T00:33:17.862Z,25.79
2022-08-30T00:38:24.256Z,25.81
2022-08-30T00:43:31.021Z,25.70
2022-08-30T00:48:34.523Z,25.55
2022-08-30T00:53:42.353Z,25.57
2022-08-30T00:58:48.278Z,25.59
2022-08-30T01:03:51.196Z,25.57
2022-08-30T01:08:55.478Z,25.58
2022-08-30T01:13:58.426Z,25.58
2022-08-30T01:19:01.671Z,25.46
2022-08-30T01:24:08.471Z,25.46
2022-08-30T01:29:17.884Z,25.43
2022-08-30T01:34:20.660Z,25.32
2022-08-30T01:39:25.942Z,25.33
2022-08-30T01:44:28.626Z,25.23
2022-08-30T01:49:31.344Z,25.14
2022-08-30T01:54:38.586Z,25.17
2022-08-30T01:59:47.369Z,25.17
2022-08-30T02:04:51.739Z,25.17
2022-08-30T02:09:56.670Z,25.11
2022-08-30T02:14:59.345Z,25.04
2022-08-30T02:20:02.227Z,24.86
2022-08-30T02:25:20.608Z,24.91
2022-08-30T02:30:24.052Z,24.95
2022-08-30T02:35:27.025Z,24.85
2022-08-30T02:40:31.627Z,24.88
2022-08-30T02:45:34.913Z,24.82
2022-08-30T02:50:40.854Z,24.75
2022-08-30T02:55:45.857Z,24.79
2022-08-30T03:00:48.578Z,24.83
2022-08-30T03:05:54.018Z,24.85
2022-08-30T03:10:58.095Z,24.83
2022-08-30T03:16:00.816Z,24.73
2022-08-30T03:21:04.353Z,24.79
2022-08-30T03:26:08.528Z,24.70
2022-08-30T03:31:11.547Z,24.70
2022-08-30T03:36:14.290Z,24.70
2022-08-30T03:41:18.392Z,24.74
2022-08-30T03:46:21.078Z,24.78
2022-08-30T03:51:29.683Z,24.79
2022-08-30T03:56:33.845Z,24.80
2022-08-30T04:01:36.609Z,24.81
2022-08-30T04:06:39.567Z,24.82
2022-08-30T04:11:43.686Z,24.83
2022-08-30T04:16:46.637Z,24.83
2022-08-30T04:21:49.617Z,24.83
2022-08-30T04:26:53.647Z,24.83
2022-08-30T04:31:56.364Z,24.83
2022-08-30T04:36:59.064Z,24.82
2022-08-30T04:42:03.288Z,24.81
2022-08-30T04:47:06.160Z,24.81
2022-08-30T04:52:10.852Z,24.82
2022-08-30T04:57:14.968Z,24.81
2022-08-30T05:02:18.192Z,24.82
2022-08-30T05:07:20.957Z,24.81
2022-08-30T05:12:25.642Z,24.82
2022-08-30T05:17:28.437Z,24.83
2022-08-30T05:22:31.159Z,24.83
2022-08-30T05:27:37.808Z,24.84
2022-08-30T05:32:41.146Z,24.85
2022-08-30T05:37:44.382Z,24.85
2022-08-30T05:42:48.747Z,24.86
2022-08-30T05:47:51.477Z,24.87
2022-08-30T05:52:54.375Z,24.88
2022-08-30T05:57:59.426Z,24.90
2022-08-30T06:03:03.148Z,24.91
2022-08-30T06:08:05.968Z,24.93
2022-08-30T06:13:10.683Z,24.93
2022-08-30T06:18:14.290Z,24.95
2022-08-30T06:23:17.813Z,24.95
2022-08-30T06:28:21.995Z,24.97
2022-08-30T06:33:24.708Z,24.98
2022-08-30T06:38:27.789Z,25.00
2022-08-30T06:43:32.004Z,25.00
2022-08-30T06:48:34.878Z,25.01
2022-08-30T06:53:37.727Z,25.02
2022-08-30T06:58:41.983Z,25.04
2022-08-30T07:03:45.124Z,25.06
2022-08-30T07:08:50.527Z,25.06
2022-08-30T07:14:01.391Z,25.09
2022-08-30T07:19:05.803Z,25.11
2022-08-30T07:24:10.116Z,25.11
2022-08-30T07:29:14.440Z,25.14
2022-08-30T07:34:19.778Z,25.15
2022-08-30T07:39:24.151Z,25.17
2022-08-30T07:44:28.499Z,25.19
2022-08-30T07:49:31.181Z,25.21
2022-08-30T07:54:34.115Z,25.23
2022-08-30T07:59:38.120Z,25.23
2022-08-30T08:04:40.859Z,25.26
2022-08-30T08:09:43.648Z,25.28
2022-08-30T08:14:47.664Z,25.29
2022-08-30T08:19:50.344Z,25.31
2022-08-30T08:24:53.037Z,25.32
2022-08-30T08:29:57.098Z,25.33
2022-08-30T08:34:59.771Z,25.36
2022-08-30T08:40:02.524Z,25.38
2022-08-30T08:45:12.532Z,25.38
2022-08-30T08:50:20.072Z,25.41
2022-08-30T08:55:24.901Z,25.44
2022-08-30T09:00:29.971Z,25.44
2022-08-30T09:05:38.990Z,25.46
2022-08-30T09:10:51.164Z,25.48
2022-08-30T09:15:59.478Z,25.53
2022-08-30T09:21:07.415Z,25.53
2022-08-30T09:26:10.586Z,25.56
2022-08-30T09:31:22.302Z,25.58
2022-08-30T09:36:31.756Z,25.59
2022-08-30T09:41:42.783Z,25.62
2022-08-30T09:46:50.843Z,25.64
2022-08-30T09:52:00.425Z,25.66
2022-08-30T09:57:13.242Z,25.69
2022-08-30T10:02:44.120Z,25.70
2022-08-30T10:07:59.096Z,25.71
2022-08-30T10:13:15.409Z,25.72
2022-08-30T10:18:26.689Z,25.73
2022-08-30T10:23:33.785Z,25.77
2022-08-30T10:28:43.052Z,25.77
2022-08-30T10:33:57.280Z,25.81
2022-08-30T10:39:02.220Z,25.82
2022-08-30T10:44:12.245Z,25.84
2022-08-30T10:49:20.620Z,25.84
2022-08-30T10:54:32.586Z,25.84
2022-08-30T10:59:40.223Z,25.87
2022-08-30T11:05:04.393Z,25.88
2022-08-30T11:10:25.782Z,25.88
2022-08-30T11:15:32.242Z,25.90
2022-08-30T11:20:42.016Z,25.93
2022-08-30T11:25:57.409Z,25.90
2022-08-30T11:31:07.234Z,25.95
2022-08-30T11:36:13.493Z,25.97
2022-08-30T11:41:34.188Z,25.98
2022-08-30T11:46:40.893Z,26.02
2022-08-30T11:57:37.427Z,26.11
2022-08-30T12:02:49.963Z,26.10
2022-08-30T12:08:03.082Z,26.13
2022-08-30T12:13:07.170Z,26.13
2022-08-30T12:18:31.483Z,26.11
2022-08-30T12:23:44.551Z,26.12
2022-08-30T12:28:50.713Z,26.13
2022-08-30T12:33:56.645Z,26.15
2022-08-30T12:39:10.865Z,26.15
2022-08-30T12:44:17.064Z,26.21
2022-08-30T12:49:21.909Z,26.23
2022-08-30T12:54:31.782Z,26.24
2022-08-30T12:59:52.859Z,26.27
2022-08-30T13:04:58.008Z,26.27
2022-08-30T13:10:08.682Z,26.32
2022-08-30T13:15:20.138Z,26.23
2022-08-30T13:20:26.375Z,26.20
2022-08-30T13:25:32.801Z,26.17
2022-08-30T13:30:36.359Z,26.18
2022-08-30T13:35:39.491Z,26.19
2022-08-30T13:40:44.408Z,26.25
2022-08-30T13:45:47.401Z,26.28
2022-08-30T13:50:50.206Z,26.25
2022-08-30T13:55:54.588Z,26.20
2022-08-30T14:00:57.463Z,26.15
2022-08-30T14:06:29.518Z,25.96
2022-08-30T14:11:28.236Z,25.89
2022-08-30T14:16:31.798Z,25.92
2022-08-30T14:21:34.677Z,25.81
2022-08-30T14:26:41.928Z,25.85
2022-08-30T14:31:47.024Z,25.92
2022-08-30T14:36:50.428Z,25.82
2022-08-30T14:41:56.541Z,25.76
2022-08-30T14:46:59.336Z,25.75
2022-08-30T14:52:03.813Z,25.87
2022-08-30T14:57:07.835Z,26.05
2022-08-30T15:02:10.682Z,26.11
2022-08-30T15:07:13.916Z,26.18
2022-08-30T15:12:18.177Z,26.28
2022-08-30T15:17:20.981Z,26.37
2022-08-30T15:22:23.728Z,26.52
2022-08-30T15:27:28.610Z,26.52
2022-08-30T15:32:32.095Z,26.55
2022-08-30T15:37:35.114Z,26.53
2022-08-30T15:42:39.331Z,26.61
2022-08-30T15:47:42.294Z,26.76
2022-08-30T15:52:45.023Z,26.79
2022-08-30T15:57:49.097Z,26.83
2022-08-30T16:02:53.212Z,26.99
2022-08-30T16:07:56.002Z,27.01
2022-08-30T16:13:01.633Z,27.04
2022-08-30T16:18:05.789Z,26.96
2022-08-30T16:23:08.789Z,27.17
2022-08-30T16:28:12.834Z,27.19
2022-08-30T16:33:15.955Z,27.21
2022-08-30T16:38:18.864Z,27.25
2022-08-30T16:43:23.937Z,27.26
2022-08-30T16:48:26.723Z,27.30
2022-08-30T16:53:30.092Z,27.31
2022-08-30T16:58:34.237Z,27.34
2022-08-30T17:03:37.694Z,27.36
2022-08-30T17:08:42.025Z,27.39
2022-08-30T17:13:46.106Z,27.41
2022-08-30T17:18:48.946Z,27.39
2022-08-30T17:23:51.894Z,27.43
2022-08-30T17:28:55.985Z,27.48
2022-08-30T17:34:03.318Z,27.48
2022-08-30T17:39:11.042Z,27.50
2022-08-30T17:44:15.758Z,27.51
2022-08-30T17:49:18.711Z,27.55
2022-08-30T17:54:21.908Z,27.59
2022-08-30T17:59:29.203Z,27.57
2022-08-30T18:04:35.409Z,27.59
2022-08-30T18:09:38.603Z,27.62
2022-08-30T18:14:42.590Z,27.59
2022-08-30T18:19:46.095Z,27.50
2022-08-30T18:24:49.500Z,27.50
2022-08-30T18:29:53.553Z,27.49
2022-08-30T18:34:56.364Z,27.46
2022-08-30T18:40:01.100Z,27.48
2022-08-30T18:45:14.706Z,27.46
2022-08-30T18:50:18.576Z,27.42
2022-08-30T18:55:22.837Z,27.43
2022-08-30T19:00:26.919Z,27.47
2022-08-30T19:05:29.880Z,27.47
2022-08-30T19:10:33.429Z,27.43
2022-08-30T19:15:37.597Z,27.44
2022-08-30T19:20:40.575Z,27.42
2022-08-30T19:25:44.624Z,27.46
2022-08-30T19:30:49.381Z,27.42
2022-08-30T19:35:52.202Z,27.41
2022-08-30T19:40:58.931Z,27.40
2022-08-30T19:46:03.111Z,27.40
2022-08-30T19:51:08.306Z,27.44
2022-08-30T19:56:11.372Z,27.42
2022-08-30T20:01:32.524Z,27.38
2022-08-30T20:06:37.025Z,27.35
2022-08-30T20:11:42.167Z,27.51
2022-08-30T20:16:47.446Z,27.55
2022-08-30T20:21:50.229Z,27.54
2022-08-30T20:26:53.870Z,27.32
2022-08-30T20:31:58.035Z,27.31
2022-08-30T20:37:00.892Z,27.31
2022-08-30T20:42:04.138Z,27.22
2022-08-30T20:47:08.452Z,27.38
2022-08-30T20:52:11.296Z,27.47
2022-08-30T20:57:14.879Z,27.38
2022-08-30T21:02:19.065Z,27.26
2022-08-30T21:07:21.847Z,27.22
2022-08-30T21:12:25.122Z,27.23
2022-08-30T21:17:30.195Z,27.34
2022-08-30T21:22:32.939Z,27.36
2022-08-30T21:27:35.830Z,27.42
2022-08-30T21:32:39.915Z,27.36
2022-08-30T21:37:42.634Z,27.17
2022-08-30T21:42:48.296Z,27.17
2022-08-30T21:47:52.286Z,26.95
2022-08-30T21:52:54.971Z,26.82
2022-08-30T21:57:57.668Z,26.73
2022-08-30T22:03:01.798Z,26.57
2022-08-30T22:08:04.852Z,26.54
2022-08-30T22:13:10.035Z,26.38
2022-08-30T22:18:14.715Z,26.34
2022-08-30T22:23:19.111Z,26.33
2022-08-30T22:28:23.307Z,26.30
2022-08-30T22:33:27.422Z,26.21
2022-08-30T22:38:30.099Z,26.20
2022-08-30T22:43:32.936Z,26.19
2022-08-30T22:48:38.412Z,26.13
2022-08-30T22:53:41.812Z,26.08
2022-08-30T22:58:45.494Z,26.04
2022-08-30T23:03:49.981Z,26.06
2022-08-30T23:08:52.801Z,26.11
2022-08-30T23:13:55.655Z,26.11
2022-08-30T23:18:59.789Z,26.11
2022-08-30T23:24:20.157Z,26.10
2022-08-30T23:29:40.938Z,26.07
2022-08-30T23:35:02.805Z,25.87
2022-08-30T23:40:24.559Z,25.88
2022-08-30T23:45:45.136Z,25.87
2022-08-30T23:51:06.697Z,25.74
2022-08-30T23:56:28.804Z,25.70
